createdAt,value
2023-02-04T00:00:17.440Z,72.33
2023-02-04T00:02:45.224Z,71.21
2023-02-04T00:05:13.810Z,70.82
2023-02-04T00:07:41.615Z,71.41
2023-02-04T00:10:10.236Z,71.52
2023-02-04T00:12:39.885Z,71.92
2023-02-04T00:15:10.724Z,70.96
2023-02-04T00:17:39.357Z,71.37
2023-02-04T00:20:07.666Z,72.20
2023-02-04T00:22:35.303Z,71.08
2023-02-04T00:25:04.502Z,70.72
2023-02-04T00:27:32.070Z,70.24
2023-02-04T00:29:59.893Z,70.89
2023-02-04T00:32:31.517Z,71.00
2023-02-04T00:34:59.055Z,70.44
2023-02-04T00:37:26.703Z,70.61
2023-02-04T00:39:54.316Z,69.72
2023-02-04T00:42:22.009Z,70.09
2023-02-04T00:44:49.755Z,70.08
2023-02-04T00:47:17.478Z,70.44
2023-02-04T00:49:46.673Z,69.90
2023-02-04T00:52:14.271Z,70.37
2023-02-04T00:54:41.884Z,69.61
2023-02-04T00:57:09.490Z,70.09
2023-02-04T00:59:37.209Z,69.53
2023-02-04T01:02:04.744Z,70.22
2023-02-04T01:04:32.199Z,70.03
2023-02-04T01:07:01.074Z,70.44
2023-02-04T01:09:28.648Z,70.42
2023-02-04T01:11:56.137Z,71.01
2023-02-04T01:14:23.668Z,71.56
2023-02-04T01:16:51.198Z,70.77
2023-02-04T01:19:18.995Z,71.40
2023-02-04T01:21:46.453Z,71.92
2023-02-04T01:24:15.334Z,71.84
2023-02-04T01:26:42.836Z,70.26
2023-02-04T01:29:10.502Z,70.46
2023-02-04T01:31:38.010Z,70.49
2023-02-04T01:34:05.540Z,70.52
2023-02-04T01:36:33.020Z,71.07
2023-02-04T01:39:00.971Z,70.28
2023-02-04T01:41:29.806Z,70.00
2023-02-04T01:43:57.290Z,70.39
2023-02-04T01:46:25.228Z,70.52
2023-02-04T01:48:52.768Z,70.99
2023-02-04T01:51:26.941Z,70.57
2023-02-04T01:53:55.338Z,70.58
2023-02-04T01:56:26.358Z,70.34
2023-02-04T01:58:56.311Z,69.90
2023-02-04T02:01:38.118Z,70.06
2023-02-04T02:04:06.515Z,70.04
2023-02-04T02:06:34.180Z,70.03
2023-02-04T02:09:02.403Z,70.88
2023-02-04T02:11:29.978Z,69.08
2023-02-04T02:13:58.825Z,69.22
2023-02-04T02:16:26.386Z,70.38
2023-02-04T02:18:54.481Z,70.43
2023-02-04T02:21:25.631Z,70.70
2023-02-04T02:23:57.129Z,71.05
2023-02-04T02:26:25.149Z,70.15
2023-02-04T02:28:52.946Z,70.46
2023-02-04T02:31:22.467Z,70.51
2023-02-04T02:33:50.240Z,70.21
2023-02-04T02:36:18.280Z,70.17
2023-02-04T02:38:45.893Z,70.99
2023-02-04T02:41:17.672Z,69.42
2023-02-04T02:43:45.208Z,69.52
2023-02-04T02:46:12.761Z,69.52
2023-02-04T02:48:40.264Z,69.76
2023-02-04T02:51:07.867Z,70.33
2023-02-04T02:53:35.828Z,69.92
2023-02-04T02:56:04.682Z,70.18
2023-02-04T02:58:34.623Z,70.52
2023-02-04T03:01:03.839Z,70.70
2023-02-04T03:03:33.064Z,71.65
2023-02-04T03:06:02.795Z,70.63
2023-02-04T03:08:30.287Z,71.51
2023-02-04T03:10:57.733Z,72.04
2023-02-04T03:13:25.373Z,73.34
2023-02-04T03:15:55.195Z,73.59
2023-02-04T03:18:22.855Z,73.85
2023-02-04T03:20:52.342Z,72.26
2023-02-04T03:23:20.324Z,70.34
2023-02-04T03:25:47.982Z,72.20
2023-02-04T03:28:15.652Z,73.00
2023-02-04T03:30:43.307Z,72.16
2023-02-04T03:33:12.185Z,71.51
2023-02-04T03:35:39.673Z,72.20
2023-02-04T03:38:07.128Z,73.34
2023-02-04T03:40:34.607Z,73.12
2023-02-04T03:43:02.057Z,74.35
2023-02-04T03:45:37.472Z,72.34
2023-02-04T03:48:12.720Z,71.10
2023-02-04T03:50:40.187Z,70.62
2023-02-04T03:53:07.766Z,69.99
2023-02-04T03:55:35.933Z,70.12
2023-02-04T03:58:03.855Z,70.81
2023-02-04T04:00:32.367Z,71.04
2023-02-04T04:03:00.129Z,70.93
2023-02-04T04:05:29.099Z,70.79
2023-02-04T04:07:56.633Z,71.10
2023-02-04T04:10:24.136Z,71.09
2023-02-04T04:12:51.689Z,71.29
2023-02-04T04:15:19.327Z,70.74
2023-02-04T04:17:46.828Z,71.17
2023-02-04T04:20:14.333Z,71.15
2023-02-04T04:22:43.284Z,71.08
2023-02-04T04:25:10.782Z,71.37
2023-02-04T04:27:38.316Z,71.20
2023-02-04T04:30:06.307Z,70.78
2023-02-04T04:32:33.785Z,70.99
2023-02-04T04:35:01.345Z,70.42
2023-02-04T04:37:28.799Z,70.56
2023-02-04T04:39:57.614Z,70.55
2023-02-04T04:42:25.073Z,71.33
2023-02-04T04:44:52.534Z,71.01
2023-02-04T04:47:20.022Z,71.51
2023-02-04T04:49:47.482Z,72.02
2023-02-04T04:52:14.935Z,71.99
2023-02-04T04:54:42.434Z,71.53
2023-02-04T04:57:11.244Z,71.60
2023-02-04T04:59:38.727Z,71.76
2023-02-04T05:02:06.166Z,72.07
2023-02-04T05:04:33.881Z,72.03
2023-02-04T05:07:01.322Z,72.96
2023-02-04T05:09:28.820Z,72.57
2023-02-04T05:11:56.335Z,72.16
2023-02-04T05:14:25.325Z,72.31
2023-02-04T05:16:52.789Z,72.80
2023-02-04T05:19:20.279Z,72.79
2023-02-04T05:21:47.736Z,73.46
2023-02-04T05:24:15.296Z,73.76
2023-02-04T05:26:42.780Z,73.94
2023-02-04T05:29:10.774Z,72.96
2023-02-04T05:31:39.715Z,73.19
2023-02-04T05:34:07.265Z,73.61
2023-02-04T05:36:34.907Z,75.00
2023-02-04T05:39:02.452Z,74.35
2023-02-04T05:41:29.931Z,74.25
2023-02-04T05:43:57.437Z,73.03
2023-02-04T05:46:25.058Z,73.42
2023-02-04T05:48:53.957Z,74.51
2023-02-04T05:51:21.486Z,74.38
2023-02-04T05:53:49.547Z,73.92
2023-02-04T05:56:17.076Z,73.72
2023-02-04T05:58:44.554Z,74.67
2023-02-04T06:01:12.057Z,75.77
2023-02-04T06:03:39.600Z,75.45
2023-02-04T06:06:08.692Z,75.17
2023-02-04T06:08:36.194Z,75.70
2023-02-04T06:11:03.699Z,76.04
2023-02-04T06:13:31.193Z,76.00
2023-02-04T06:15:58.666Z,76.27
2023-02-04T06:18:26.109Z,76.16
2023-02-04T06:20:53.819Z,77.08
2023-02-04T06:23:22.617Z,77.33
2023-02-04T06:25:50.299Z,77.03
2023-02-04T06:28:17.814Z,77.64
2023-02-04T06:30:45.411Z,76.61
2023-02-04T06:33:12.935Z,76.72
2023-02-04T06:35:40.392Z,77.21
2023-02-04T06:38:07.839Z,76.71
2023-02-04T06:40:36.652Z,77.18
2023-02-04T06:43:04.613Z,76.76
2023-02-04T06:45:32.138Z,75.79
2023-02-04T06:47:59.629Z,74.78
2023-02-04T06:50:28.106Z,73.66
2023-02-04T06:52:55.557Z,73.49
2023-02-04T06:55:23.039Z,73.46
2023-02-04T06:57:51.922Z,72.89
2023-02-04T07:00:19.910Z,73.23
2023-02-04T07:02:47.419Z,73.16
2023-02-04T07:05:14.873Z,73.52
2023-02-04T07:07:42.332Z,72.67
2023-02-04T07:10:10.655Z,73.30
2023-02-04T07:12:38.122Z,73.90
2023-02-04T07:15:07.773Z,76.44
2023-02-04T07:17:35.225Z,77.32
2023-02-04T07:20:02.703Z,76.95
2023-02-04T07:22:30.219Z,73.37
2023-02-04T07:24:58.707Z,73.55
2023-02-04T07:27:26.190Z,75.81
2023-02-04T07:29:53.706Z,77.34
2023-02-04T07:32:22.503Z,78.21
2023-02-04T07:34:49.972Z,77.83
2023-02-04T07:37:17.485Z,77.73
2023-02-04T07:39:44.975Z,77.35
2023-02-04T07:42:12.436Z,78.02
2023-02-04T07:44:39.934Z,78.06
2023-02-04T07:47:07.586Z,78.09
2023-02-04T07:49:36.585Z,77.09
2023-02-04T07:52:04.189Z,76.52
2023-02-04T07:54:31.807Z,76.85
2023-02-04T07:56:59.309Z,76.61
2023-02-04T07:59:26.932Z,76.35
2023-02-04T08:01:54.645Z,75.55
2023-02-04T08:04:22.218Z,74.16
2023-02-04T08:06:51.285Z,73.23
2023-02-04T08:09:18.994Z,72.57
2023-02-04T08:11:46.528Z,71.98
2023-02-04T08:14:14.310Z,72.65
2023-02-04T08:16:42.273Z,72.23
2023-02-04T08:19:10.045Z,72.18
2023-02-04T08:21:37.580Z,70.80
2023-02-04T08:24:06.982Z,70.82
2023-02-04T08:26:34.674Z,71.08
2023-02-04T08:29:02.312Z,71.55
2023-02-04T08:31:30.024Z,71.61
2023-02-04T08:33:57.694Z,70.79
2023-02-04T08:36:25.372Z,71.59
2023-02-04T08:38:52.949Z,70.76
2023-02-04T08:41:22.010Z,71.53
2023-02-04T08:43:49.908Z,71.24
2023-02-04T08:46:17.651Z,70.91
2023-02-04T08:48:45.311Z,69.26
2023-02-04T08:51:12.988Z,68.83
2023-02-04T08:53:41.275Z,67.92
2023-02-04T08:56:09.245Z,68.29
2023-02-04T08:58:39.617Z,68.32
2023-02-04T09:01:07.295Z,67.80
2023-02-04T09:03:35.241Z,67.98
2023-02-04T09:06:02.918Z,68.63
2023-02-04T09:08:30.538Z,68.10
2023-02-04T09:10:58.020Z,67.86
2023-02-04T09:13:27.139Z,68.33
2023-02-04T09:15:55.948Z,68.74
2023-02-04T09:18:25.147Z,68.50
2023-02-04T09:20:53.498Z,67.86
2023-02-04T09:23:21.299Z,67.90
2023-02-04T09:25:49.514Z,67.80
2023-02-04T09:28:17.124Z,67.82
2023-02-04T09:30:46.250Z,66.85
2023-02-04T09:33:16.710Z,67.57
2023-02-04T09:35:44.281Z,67.31
2023-02-04T09:38:11.813Z,66.73
2023-02-04T09:40:48.826Z,67.50
2023-02-04T09:43:19.911Z,67.97
2023-02-04T09:45:49.350Z,68.47
2023-02-04T09:48:18.446Z,68.17
2023-02-04T09:50:46.334Z,68.39
2023-02-04T09:53:15.893Z,67.50
2023-02-04T09:55:46.069Z,67.16
2023-02-04T09:58:16.345Z,67.28
2023-02-04T10:00:44.623Z,68.00
2023-02-04T10:03:15.883Z,65.89
2023-02-04T10:05:45.280Z,66.71
2023-02-04T10:08:15.468Z,67.21
2023-02-04T10:10:43.174Z,66.80
2023-02-04T10:13:15.853Z,66.82
2023-02-04T10:15:43.336Z,67.05
2023-02-04T10:18:12.641Z,67.17
2023-02-04T10:20:40.117Z,66.91
2023-02-04T10:23:12.784Z,66.68
2023-02-04T10:25:40.346Z,66.79
2023-02-04T10:28:07.832Z,66.64
2023-02-04T10:30:41.206Z,67.82
2023-02-04T10:33:16.481Z,67.47
2023-02-04T10:35:48.203Z,67.29
2023-02-04T10:38:17.205Z,67.19
2023-02-04T10:40:46.054Z,67.68
2023-02-04T10:43:16.722Z,68.37
2023-02-04T10:45:47.669Z,69.58
2023-02-04T10:48:17.384Z,69.93
2023-02-04T10:50:45.307Z,70.40
2023-02-04T10:53:30.602Z,70.75
2023-02-04T10:55:59.669Z,70.11
2023-02-04T10:58:29.260Z,71.13
2023-02-04T11:00:57.069Z,70.50
2023-02-04T11:03:26.283Z,70.86
2023-02-04T11:05:54.456Z,70.80
2023-02-04T11:08:24.029Z,70.38
2023-02-04T11:10:52.758Z,70.37
2023-02-04T11:13:26.381Z,69.76
2023-02-04T11:16:10.806Z,70.18
2023-02-04T11:18:47.464Z,69.53
2023-02-04T11:21:16.138Z,69.47
2023-02-04T11:23:43.631Z,68.99
2023-02-04T11:26:14.154Z,68.81
2023-02-04T11:28:52.174Z,68.61
2023-02-04T11:31:40.692Z,68.96
2023-02-04T11:34:12.191Z,70.23
2023-02-04T11:36:52.403Z,70.04
2023-02-04T11:39:20.294Z,68.74
2023-02-04T11:41:48.106Z,68.07
2023-02-04T11:44:17.491Z,68.38
2023-02-04T11:46:45.158Z,67.91
2023-02-04T11:49:18.535Z,69.74
2023-02-04T11:51:46.603Z,67.38
2023-02-04T11:54:16.309Z,67.24
2023-02-04T11:56:43.959Z,66.37
2023-02-04T11:59:12.930Z,66.96
2023-02-04T12:01:42.232Z,66.78
2023-02-04T12:04:24.038Z,65.80
2023-02-04T12:06:59.723Z,65.79
2023-02-04T12:09:29.812Z,65.41
2023-02-04T12:11:58.894Z,66.91
2023-02-04T12:14:30.329Z,62.98
2023-02-04T12:16:59.190Z,64.13
2023-02-04T12:19:27.760Z,65.82
2023-02-04T12:21:55.752Z,66.29
2023-02-04T12:24:23.234Z,65.92
2023-02-04T12:26:51.635Z,64.37
2023-02-04T12:29:19.138Z,63.48
2023-02-04T12:31:46.862Z,62.01
2023-02-04T12:34:17.257Z,63.21
2023-02-04T12:36:44.884Z,64.67
2023-02-04T12:39:12.368Z,63.84
2023-02-04T12:41:39.811Z,63.65
2023-02-04T12:44:07.265Z,63.25
2023-02-04T12:46:34.834Z,63.62
2023-02-04T12:49:02.301Z,62.99
2023-02-04T12:51:31.115Z,63.61
2023-02-04T12:53:58.561Z,62.98
2023-02-04T12:56:26.182Z,62.89
2023-02-04T12:58:53.699Z,63.37
2023-02-04T13:01:21.122Z,63.80
2023-02-04T13:03:48.652Z,63.04
2023-02-04T13:06:16.137Z,63.90
2023-02-04T13:08:44.941Z,63.71
2023-02-04T13:11:12.461Z,61.44
2023-02-04T13:13:40.523Z,59.53
2023-02-04T13:16:08.034Z,59.46
2023-02-04T13:18:35.544Z,59.31
2023-02-04T13:21:03.030Z,59.75
2023-02-04T13:23:30.480Z,60.71
2023-02-04T13:25:59.283Z,61.33
2023-02-04T13:28:26.736Z,60.87
2023-02-04T13:30:54.197Z,60.83
2023-02-04T13:33:21.715Z,60.04
2023-02-04T13:35:49.184Z,60.68
2023-02-04T13:38:16.680Z,60.63
2023-02-04T13:40:44.159Z,60.81
2023-02-04T13:43:13.012Z,60.87
2023-02-04T13:45:47.324Z,61.29
2023-02-04T13:48:15.497Z,60.67
2023-02-04T13:50:43.048Z,61.16
2023-02-04T13:53:10.663Z,61.63
2023-02-04T13:55:38.159Z,62.15
2023-02-04T13:58:05.610Z,61.49
2023-02-04T14:00:34.921Z,61.02
2023-02-04T14:03:02.682Z,59.75
2023-02-04T14:05:30.167Z,61.22
2023-02-04T14:07:57.609Z,60.47
2023-02-04T14:10:26.729Z,61.17
2023-02-04T14:12:54.488Z,59.26
2023-02-04T14:15:21.964Z,60.16
2023-02-04T14:17:50.813Z,59.92
2023-02-04T14:20:18.719Z,58.71
2023-02-04T14:22:46.321Z,59.81
2023-02-04T14:25:13.802Z,59.96
2023-02-04T14:27:42.512Z,58.52
2023-02-04T14:30:17.645Z,58.62
2023-02-04T14:32:45.127Z,59.53
2023-02-04T14:35:14.475Z,59.56
2023-02-04T14:37:42.031Z,60.01
2023-02-04T14:40:11.337Z,62.48
2023-02-04T14:42:39.315Z,62.07
2023-02-04T14:45:08.312Z,62.42
2023-02-04T14:47:35.855Z,62.00
2023-02-04T14:50:04.420Z,61.56
2023-02-04T14:52:33.203Z,61.01
2023-02-04T14:55:00.781Z,61.58
2023-02-04T14:57:28.251Z,60.83
2023-02-04T14:59:55.734Z,60.96
2023-02-04T15:02:23.287Z,61.78
2023-02-04T15:04:50.799Z,61.72
2023-02-04T15:07:18.336Z,61.78
2023-02-04T15:09:48.228Z,62.28
2023-02-04T15:12:15.859Z,61.94
2023-02-04T15:14:43.322Z,61.68
2023-02-04T15:17:10.789Z,61.63
2023-02-04T15:19:38.301Z,61.04
2023-02-04T15:22:05.784Z,60.85
2023-02-04T15:24:33.233Z,59.55
2023-02-04T15:27:02.098Z,59.61
2023-02-04T15:29:30.441Z,59.18
2023-02-04T15:31:58.013Z,59.36
2023-02-04T15:34:25.832Z,59.67
2023-02-04T15:36:53.363Z,60.03
2023-02-04T15:39:20.808Z,59.96
2023-02-04T15:41:48.368Z,58.78
2023-02-04T15:44:17.235Z,59.47
2023-02-04T15:46:44.714Z,60.56
2023-02-04T15:49:12.360Z,60.28
2023-02-04T15:51:39.874Z,60.09
2023-02-04T15:54:07.326Z,59.69
2023-02-04T15:56:34.867Z,60.54
2023-02-04T15:59:02.646Z,61.19
2023-02-04T16:01:31.685Z,61.49
2023-02-04T16:04:00.190Z,61.84
2023-02-04T16:06:27.690Z,60.29
2023-02-04T16:08:55.139Z,59.76
2023-02-04T16:11:22.606Z,59.74
2023-02-04T16:13:50.056Z,59.50
2023-02-04T16:16:17.582Z,59.52
2023-02-04T16:18:46.467Z,60.60
2023-02-04T16:21:13.964Z,59.87
2023-02-04T16:23:43.322Z,60.03
2023-02-04T16:26:11.003Z,61.03
2023-02-04T16:28:38.493Z,60.82
2023-02-04T16:31:09.518Z,59.58
2023-02-04T16:33:37.146Z,60.18
2023-02-04T16:36:10.649Z,60.57
2023-02-04T16:38:38.799Z,60.46
2023-02-04T16:41:06.532Z,61.76
2023-02-04T16:43:34.117Z,62.31
2023-02-04T16:46:01.722Z,62.78
2023-02-04T16:48:29.506Z,64.87
2023-02-04T16:50:58.134Z,64.89
2023-02-04T16:53:26.918Z,66.05
2023-02-04T16:55:55.617Z,65.59
2023-02-04T16:58:23.508Z,65.80
2023-02-04T17:00:51.223Z,65.69
2023-02-04T17:03:18.779Z,65.87
2023-02-04T17:05:46.289Z,65.19
2023-02-04T17:08:14.995Z,66.14
2023-02-04T17:11:01.665Z,65.59
2023-02-04T17:13:29.272Z,65.91
2023-02-04T17:16:00.522Z,66.66
2023-02-04T17:18:29.375Z,66.57
2023-02-04T17:20:57.181Z,67.66
2023-02-04T17:23:25.139Z,66.12
2023-02-04T17:25:53.981Z,66.50
2023-02-04T17:28:21.529Z,66.50
2023-02-04T17:30:49.119Z,67.34
2023-02-04T17:33:16.583Z,67.48
2023-02-04T17:35:44.054Z,67.22
2023-02-04T17:38:11.523Z,66.71
2023-02-04T17:40:38.994Z,67.08
2023-02-04T17:43:08.366Z,67.45
2023-02-04T17:45:36.270Z,67.49
2023-02-04T17:48:04.986Z,68.23
2023-02-04T17:50:34.105Z,67.60
2023-02-04T17:53:01.545Z,66.73
2023-02-04T17:55:31.030Z,66.65
2023-02-04T17:58:00.909Z,67.60
2023-02-04T18:00:31.718Z,67.59
2023-02-04T18:02:59.342Z,67.94
2023-02-04T18:05:28.372Z,67.24
2023-02-04T18:08:01.119Z,68.05
2023-02-04T18:10:31.876Z,67.13
2023-02-04T18:13:00.286Z,67.72
2023-02-04T18:15:32.218Z,68.35
2023-02-04T18:18:11.573Z,68.16
2023-02-04T18:20:39.110Z,67.61
2023-02-04T18:23:13.635Z,68.32
2023-02-04T18:25:41.131Z,69.70
2023-02-04T18:28:15.340Z,69.81
2023-02-04T18:30:44.337Z,68.42
2023-02-04T18:33:20.635Z,68.23
2023-02-04T18:35:50.300Z,68.90
2023-02-04T18:38:28.325Z,67.75
2023-02-04T18:41:03.430Z,68.21
2023-02-04T18:43:34.938Z,66.64
2023-02-04T18:46:16.761Z,67.43
2023-02-04T18:49:00.952Z,65.36
2023-02-04T18:51:31.529Z,64.82
2023-02-04T18:54:19.523Z,65.95
2023-02-04T18:56:47.171Z,67.86
2023-02-04T18:59:18.120Z,68.49
2023-02-04T19:01:48.233Z,68.46
2023-02-04T19:04:21.472Z,67.35
2023-02-04T19:06:49.956Z,67.42
2023-02-04T19:09:23.232Z,65.65
2023-02-04T19:11:52.865Z,65.49
2023-02-04T19:14:33.284Z,66.96
2023-02-04T19:17:22.498Z,64.68
2023-02-04T19:19:57.329Z,66.03
2023-02-04T19:22:33.799Z,65.19
2023-02-04T19:25:20.685Z,63.96
2023-02-04T19:27:54.005Z,64.40
2023-02-04T19:30:42.057Z,64.45
2023-02-04T19:33:16.812Z,64.67
2023-02-04T19:35:46.134Z,65.82
2023-02-04T19:38:30.633Z,64.84
2023-02-04T19:40:58.339Z,65.77
2023-02-04T19:43:34.828Z,64.57
2023-02-04T19:46:03.660Z,65.23
2023-02-04T19:48:37.826Z,65.71
2023-02-04T19:51:20.069Z,66.12
2023-02-04T19:53:52.789Z,66.02
2023-02-04T19:56:33.353Z,67.12
2023-02-04T19:59:18.654Z,67.61
2023-02-04T20:01:46.267Z,67.97
2023-02-04T20:04:19.357Z,67.42
2023-02-04T20:06:58.696Z,67.74
2023-02-04T20:09:30.355Z,68.21
2023-02-04T20:12:05.727Z,68.26
2023-02-04T20:14:52.442Z,68.10
2023-02-04T20:17:26.484Z,67.93
2023-02-04T20:19:56.202Z,68.62
2023-02-04T20:22:48.591Z,68.99
2023-02-04T20:25:45.053Z,69.86
2023-02-04T20:28:39.818Z,69.41
2023-02-04T20:31:24.815Z,69.92
2023-02-04T20:33:54.108Z,70.38
2023-02-04T20:36:36.060Z,70.41
2023-02-04T20:39:32.267Z,70.84
2023-02-04T20:42:23.717Z,70.12
2023-02-04T20:44:53.496Z,70.21
2023-02-04T20:47:28.788Z,69.80
2023-02-04T20:50:00.204Z,69.79
2023-02-04T20:53:03.085Z,70.17
2023-02-04T20:55:35.735Z,70.25
2023-02-04T20:58:15.194Z,70.03
2023-02-04T21:00:47.851Z,71.74
2023-02-04T21:03:36.891Z,70.68
2023-02-04T21:06:18.534Z,71.76
2023-02-04T21:08:49.363Z,71.80
2023-02-04T21:11:17.343Z,70.98
2023-02-04T21:13:46.727Z,70.60
2023-02-04T21:16:22.636Z,71.64
2023-02-04T21:18:50.673Z,71.15
2023-02-04T21:21:20.188Z,71.29
2023-02-04T21:23:49.146Z,71.21
2023-02-04T21:26:16.730Z,71.48
2023-02-04T21:28:44.480Z,71.86
2023-02-04T21:31:12.514Z,72.01
2023-02-04T21:33:40.181Z,72.69
2023-02-04T21:36:08.876Z,72.33
2023-02-04T21:38:37.209Z,71.80
2023-02-04T21:41:06.500Z,72.13
2023-02-04T21:43:34.040Z,72.17
2023-02-04T21:46:02.182Z,72.35
2023-02-04T21:48:29.868Z,72.44
2023-02-04T21:50:57.538Z,72.52
2023-02-04T21:53:25.155Z,73.50
2023-02-04T21:55:52.791Z,73.16
2023-02-04T21:58:22.889Z,73.26
2023-02-04T22:00:50.756Z,73.37
2023-02-04T22:03:18.434Z,73.03
2023-02-04T22:05:46.039Z,73.32
2023-02-04T22:08:13.907Z,74.20
2023-02-04T22:10:44.069Z,73.43
2023-02-04T22:13:29.416Z,74.08
2023-02-04T22:15:59.258Z,73.51
2023-02-04T22:18:41.682Z,72.97
2023-02-04T22:21:10.995Z,73.53
2023-02-04T22:23:39.737Z,73.95
2023-02-04T22:26:08.508Z,74.26
2023-02-04T22:28:36.306Z,73.82
2023-02-04T22:31:05.324Z,74.86
2023-02-04T22:33:33.122Z,74.81
2023-02-04T22:36:00.739Z,76.21
2023-02-04T22:38:31.409Z,76.06
2023-02-04T22:40:59.016Z,75.55
2023-02-04T22:43:26.765Z,76.80
2023-02-04T22:45:54.505Z,75.29
2023-02-04T22:48:23.555Z,75.57
2023-02-04T22:50:51.169Z,75.86
2023-02-04T22:53:20.446Z,75.85
2023-02-04T22:55:48.048Z,76.18
2023-02-04T22:58:15.886Z,74.14
2023-02-04T23:00:47.052Z,74.61
2023-02-04T23:03:14.752Z,75.79
2023-02-04T23:05:45.189Z,75.99
2023-02-04T23:08:17.879Z,76.01
2023-02-04T23:10:45.568Z,76.41
2023-02-04T23:13:13.492Z,76.05
2023-02-04T23:15:41.119Z,74.26
2023-02-04T23:18:08.761Z,74.07
2023-02-04T23:20:36.632Z,74.86
2023-02-04T23:23:05.682Z,74.57
2023-02-04T23:25:35.061Z,74.23
2023-02-04T23:28:02.925Z,74.86
2023-02-04T23:30:32.863Z,75.51
2023-02-04T23:33:00.503Z,76.28
2023-02-04T23:35:28.239Z,76.20
2023-02-04T23:37:55.923Z,75.65
2023-02-04T23:40:25.188Z,76.16
2023-02-04T23:42:52.808Z,75.74
2023-02-04T23:45:21.546Z,75.88
2023-02-04T23:47:49.220Z,75.56
2023-02-04T23:50:17.580Z,76.24
2023-02-04T23:52:45.256Z,75.86
2023-02-04T23:55:12.775Z,76.16
2023-02-04T23:57:41.978Z,76.74
